sensor_id;sensor_type;location;lat;lon;timestamp;P1;durP1;ratioP1;P2;durP2;ratioP2
20458;SDS011;10388;52.314;7.938;2023-12-20T00:00:40;6.47;;;2.73;;
20458;SDS011;10388;52.314;7.938;2023-12-20T00:03:10;10.03;;;2.80;;
20458;SDS011;10388;52.314;7.938;2023-12-20T00:05:41;5.23;;;2.50;;
20458;SDS011;10388;52.314;7.938;2023-12-20T00:08:11;8.07;;;2.70;;
20458;SDS011;10388;52.314;7.938;2023-12-20T00:10:42;7.07;;;2.73;;
20458;SDS011;10388;52.314;7.938;2023-12-20T00:13:13;4.43;;;2.17;;
20458;SDS011;10388;52.314;7.938;2023-12-20T00:15:44;6.27;;;2.10;;
20458;SDS011;10388;52.314;7.938;2023-12-20T00:18:14;3.90;;;2.27;;
20458;SDS011;10388;52.314;7.938;2023-12-20T00:20:45;9.23;;;2.60;;
20458;SDS011;10388;52.314;7.938;2023-12-20T00:23:15;8.30;;;2.57;;
20458;SDS011;10388;52.314;7.938;2023-12-20T00:25:46;6.63;;;2.40;;
20458;SDS011;10388;52.314;7.938;2023-12-20T00:28:17;3.93;;;2.60;;
20458;SDS011;10388;52.314;7.938;2023-12-20T00:30:47;6.43;;;2.83;;
20458;SDS011;10388;52.314;7.938;2023-12-20T00:33:18;6.00;;;2.60;;
20458;SDS011;10388;52.314;7.938;2023-12-20T00:35:49;7.37;;;2.17;;
20458;SDS011;10388;52.314;7.938;2023-12-20T00:38:19;6.63;;;2.60;;
20458;SDS011;10388;52.314;7.938;2023-12-20T00:40:50;8.70;;;2.80;;
20458;SDS011;10388;52.314;7.938;2023-12-20T00:43:20;5.83;;;3.27;;
20458;SDS011;10388;52.314;7.938;2023-12-20T00:45:51;6.90;;;2.80;;
20458;SDS011;10388;52.314;7.938;2023-12-20T00:48:21;8.67;;;2.53;;
20458;SDS011;10388;52.314;7.938;2023-12-20T00:50:52;5.70;;;2.50;;
20458;SDS011;10388;52.314;7.938;2023-12-20T00:53:23;6.93;;;2.47;;
20458;SDS011;10388;52.314;7.938;2023-12-20T00:55:53;4.30;;;2.23;;
20458;SDS011;10388;52.314;7.938;2023-12-20T00:58:24;9.83;;;2.50;;
20458;SDS011;10388;52.314;7.938;2023-12-20T01:00:54;5.93;;;2.57;;
20458;SDS011;10388;52.314;7.938;2023-12-20T01:03:25;5.77;;;2.23;;
20458;SDS011;10388;52.314;7.938;2023-12-20T01:06:04;3.27;;;2.30;;
20458;SDS011;10388;52.314;7.938;2023-12-20T01:09:00;7.97;;;2.73;;
20458;SDS011;10388;52.314;7.938;2023-12-20T01:11:30;4.77;;;2.90;;
20458;SDS011;10388;52.314;7.938;2023-12-20T01:14:01;6.97;;;2.77;;
20458;SDS011;10388;52.314;7.938;2023-12-20T01:16:31;6.30;;;2.90;;
20458;SDS011;10388;52.314;7.938;2023-12-20T01:19:02;6.70;;;2.97;;
20458;SDS011;10388;52.314;7.938;2023-12-20T01:21:32;10.13;;;2.83;;
20458;SDS011;10388;52.314;7.938;2023-12-20T01:24:03;6.27;;;3.20;;
20458;SDS011;10388;52.314;7.938;2023-12-20T01:26:34;3.60;;;3.00;;
20458;SDS011;10388;52.314;7.938;2023-12-20T01:29:04;5.50;;;3.13;;
20458;SDS011;10388;52.314;7.938;2023-12-20T01:31:35;9.50;;;3.47;;
20458;SDS011;10388;52.314;7.938;2023-12-20T01:34:05;7.37;;;3.20;;
20458;SDS011;10388;52.314;7.938;2023-12-20T01:36:36;6.00;;;2.90;;
20458;SDS011;10388;52.314;7.938;2023-12-20T01:39:07;7.57;;;2.83;;
20458;SDS011;10388;52.314;7.938;2023-12-20T01:41:38;7.50;;;3.00;;
20458;SDS011;10388;52.314;7.938;2023-12-20T01:44:08;7.47;;;2.90;;
20458;SDS011;10388;52.314;7.938;2023-12-20T01:46:39;3.67;;;2.47;;
20458;SDS011;10388;52.314;7.938;2023-12-20T01:49:09;7.03;;;3.43;;
20458;SDS011;10388;52.314;7.938;2023-12-20T01:51:40;7.33;;;2.77;;
20458;SDS011;10388;52.314;7.938;2023-12-20T01:54:11;6.50;;;3.13;;
20458;SDS011;10388;52.314;7.938;2023-12-20T01:56:42;5.47;;;2.77;;
20458;SDS011;10388;52.314;7.938;2023-12-20T01:59:13;6.67;;;3.00;;
20458;SDS011;10388;52.314;7.938;2023-12-20T02:01:44;8.90;;;3.23;;
20458;SDS011;10388;52.314;7.938;2023-12-20T02:04:15;8.43;;;3.23;;
20458;SDS011;10388;52.314;7.938;2023-12-20T02:06:46;10.53;;;3.27;;
20458;SDS011;10388;52.314;7.938;2023-12-20T02:09:17;7.53;;;2.83;;
20458;SDS011;10388;52.314;7.938;2023-12-20T02:11:49;10.30;;;3.53;;
20458;SDS011;10388;52.314;7.938;2023-12-20T02:14:22;6.23;;;3.50;;
20458;SDS011;10388;52.314;7.938;2023-12-20T02:16:55;11.33;;;3.77;;
20458;SDS011;10388;52.314;7.938;2023-12-20T02:19:25;10.73;;;3.67;;
20458;SDS011;10388;52.314;7.938;2023-12-20T02:22:09;8.33;;;3.80;;
20458;SDS011;10388;52.314;7.938;2023-12-20T02:24:40;9.80;;;3.73;;
20458;SDS011;10388;52.314;7.938;2023-12-20T02:27:11;11.73;;;4.00;;
20458;SDS011;10388;52.314;7.938;2023-12-20T02:29:42;7.20;;;3.37;;
20458;SDS011;10388;52.314;7.938;2023-12-20T02:32:12;12.73;;;3.90;;
20458;SDS011;10388;52.314;7.938;2023-12-20T02:34:43;9.07;;;4.23;;
20458;SDS011;10388;52.314;7.938;2023-12-20T02:37:14;8.17;;;3.93;;
20458;SDS011;10388;52.314;7.938;2023-12-20T02:39:44;9.23;;;4.40;;
20458;SDS011;10388;52.314;7.938;2023-12-20T02:42:15;7.73;;;3.93;;
20458;SDS011;10388;52.314;7.938;2023-12-20T02:44:45;12.83;;;4.60;;
20458;SDS011;10388;52.314;7.938;2023-12-20T02:47:19;8.37;;;4.37;;
20458;SDS011;10388;52.314;7.938;2023-12-20T02:50:07;12.03;;;4.70;;
20458;SDS011;10388;52.314;7.938;2023-12-20T02:52:38;10.10;;;4.60;;
20458;SDS011;10388;52.314;7.938;2023-12-20T02:55:09;9.63;;;5.03;;
20458;SDS011;10388;52.314;7.938;2023-12-20T02:57:39;12.67;;;5.80;;
20458;SDS011;10388;52.314;7.938;2023-12-20T03:00:12;9.23;;;5.57;;
20458;SDS011;10388;52.314;7.938;2023-12-20T03:02:43;10.90;;;5.90;;
20458;SDS011;10388;52.314;7.938;2023-12-20T03:05:14;11.03;;;4.77;;
20458;SDS011;10388;52.314;7.938;2023-12-20T03:07:45;13.67;;;5.30;;
20458;SDS011;10388;52.314;7.938;2023-12-20T03:10:15;13.33;;;5.03;;
20458;SDS011;10388;52.314;7.938;2023-12-20T03:12:46;12.47;;;5.20;;
20458;SDS011;10388;52.314;7.938;2023-12-20T03:15:17;10.67;;;5.23;;
20458;SDS011;10388;52.314;7.938;2023-12-20T03:17:47;9.90;;;5.07;;
20458;SDS011;10388;52.314;7.938;2023-12-20T03:20:18;9.30;;;4.90;;
20458;SDS011;10388;52.314;7.938;2023-12-20T03:22:48;9.90;;;5.13;;
20458;SDS011;10388;52.314;7.938;2023-12-20T03:25:19;10.43;;;5.00;;
20458;SDS011;10388;52.314;7.938;2023-12-20T03:27:49;11.00;;;4.50;;
20458;SDS011;10388;52.314;7.938;2023-12-20T03:30:20;12.67;;;4.73;;
20458;SDS011;10388;52.314;7.938;2023-12-20T03:32:51;11.33;;;4.93;;
20458;SDS011;10388;52.314;7.938;2023-12-20T03:35:21;15.60;;;4.50;;
20458;SDS011;10388;52.314;7.938;2023-12-20T03:37:52;7.63;;;4.00;;
20458;SDS011;10388;52.314;7.938;2023-12-20T03:40:23;11.27;;;4.20;;
20458;SDS011;10388;52.314;7.938;2023-12-20T03:42:53;12.63;;;4.90;;
20458;SDS011;10388;52.314;7.938;2023-12-20T03:45:24;10.37;;;4.13;;
20458;SDS011;10388;52.314;7.938;2023-12-20T03:47:55;10.87;;;4.30;;
20458;SDS011;10388;52.314;7.938;2023-12-20T03:50:26;9.33;;;3.70;;
20458;SDS011;10388;52.314;7.938;2023-12-20T03:52:57;11.13;;;4.00;;
20458;SDS011;10388;52.314;7.938;2023-12-20T03:55:27;9.30;;;3.90;;
20458;SDS011;10388;52.314;7.938;2023-12-20T03:57:58;12.83;;;3.70;;
20458;SDS011;10388;52.314;7.938;2023-12-20T04:00:28;7.57;;;3.37;;
20458;SDS011;10388;52.314;7.938;2023-12-20T04:02:59;10.33;;;4.33;;
20458;SDS011;10388;52.314;7.938;2023-12-20T04:05:29;9.30;;;3.40;;
20458;SDS011;10388;52.314;7.938;2023-12-20T04:08:17;8.17;;;3.47;;
20458;SDS011;10388;52.314;7.938;2023-12-20T04:10:48;10.87;;;3.80;;
20458;SDS011;10388;52.314;7.938;2023-12-20T04:13:19;10.20;;;4.00;;
20458;SDS011;10388;52.314;7.938;2023-12-20T04:15:49;8.03;;;3.47;;
20458;SDS011;10388;52.314;7.938;2023-12-20T04:18:21;7.97;;;3.43;;
20458;SDS011;10388;52.314;7.938;2023-12-20T04:20:52;10.30;;;3.33;;
20458;SDS011;10388;52.314;7.938;2023-12-20T04:23:22;9.10;;;3.43;;
20458;SDS011;10388;52.314;7.938;2023-12-20T04:25:54;9.40;;;3.17;;
20458;SDS011;10388;52.314;7.938;2023-12-20T04:28:24;9.10;;;3.50;;
20458;SDS011;10388;52.314;7.938;2023-12-20T04:30:55;8.20;;;3.13;;
20458;SDS011;10388;52.314;7.938;2023-12-20T04:33:26;11.67;;;3.60;;
20458;SDS011;10388;52.314;7.938;2023-12-20T04:35:57;11.60;;;3.80;;
20458;SDS011;10388;52.314;7.938;2023-12-20T04:38:27;9.17;;;2.80;;
20458;SDS011;10388;52.314;7.938;2023-12-20T04:40:58;8.10;;;3.23;;
20458;SDS011;10388;52.314;7.938;2023-12-20T04:43:28;10.67;;;3.33;;
20458;SDS011;10388;52.314;7.938;2023-12-20T04:45:59;7.20;;;3.10;;
20458;SDS011;10388;52.314;7.938;2023-12-20T04:48:30;11.40;;;2.97;;
20458;SDS011;10388;52.314;7.938;2023-12-20T04:51:00;12.10;;;3.53;;
20458;SDS011;10388;52.314;7.938;2023-12-20T04:53:31;10.67;;;2.87;;
20458;SDS011;10388;52.314;7.938;2023-12-20T04:56:04;8.93;;;3.33;;
20458;SDS011;10388;52.314;7.938;2023-12-20T04:58:35;8.10;;;2.97;;
20458;SDS011;10388;52.314;7.938;2023-12-20T05:01:05;11.30;;;3.43;;
20458;SDS011;10388;52.314;7.938;2023-12-20T05:03:37;10.60;;;2.87;;
20458;SDS011;10388;52.314;7.938;2023-12-20T05:06:07;8.67;;;2.60;;
20458;SDS011;10388;52.314;7.938;2023-12-20T05:08:39;6.63;;;2.90;;
20458;SDS011;10388;52.314;7.938;2023-12-20T05:11:10;7.93;;;3.03;;
20458;SDS011;10388;52.314;7.938;2023-12-20T05:13:43;10.77;;;3.00;;
20458;SDS011;10388;52.314;7.938;2023-12-20T05:16:31;7.57;;;2.73;;
20458;SDS011;10388;52.314;7.938;2023-12-20T05:19:02;10.60;;;2.97;;
20458;SDS011;10388;52.314;7.938;2023-12-20T05:21:36;8.07;;;3.63;;
20458;SDS011;10388;52.314;7.938;2023-12-20T05:24:07;7.63;;;3.20;;
20458;SDS011;10388;52.314;7.938;2023-12-20T05:26:37;11.80;;;4.00;;
20458;SDS011;10388;52.314;7.938;2023-12-20T05:29:08;10.17;;;3.13;;
20458;SDS011;10388;52.314;7.938;2023-12-20T05:31:38;11.73;;;3.40;;
20458;SDS011;10388;52.314;7.938;2023-12-20T05:34:09;8.47;;;3.50;;
20458;SDS011;10388;52.314;7.938;2023-12-20T05:36:40;8.57;;;3.43;;
20458;SDS011;10388;52.314;7.938;2023-12-20T05:39:10;10.23;;;3.77;;
20458;SDS011;10388;52.314;7.938;2023-12-20T05:41:41;6.90;;;3.10;;
20458;SDS011;10388;52.314;7.938;2023-12-20T05:44:15;11.07;;;4.13;;
20458;SDS011;10388;52.314;7.938;2023-12-20T05:46:48;10.90;;;3.50;;
20458;SDS011;10388;52.314;7.938;2023-12-20T05:49:21;12.30;;;3.77;;
20458;SDS011;10388;52.314;7.938;2023-12-20T05:51:52;11.57;;;3.60;;
20458;SDS011;10388;52.314;7.938;2023-12-20T05:54:23;12.03;;;4.00;;
20458;SDS011;10388;52.314;7.938;2023-12-20T05:56:53;10.63;;;5.00;;
20458;SDS011;10388;52.314;7.938;2023-12-20T05:59:24;10.63;;;3.67;;
20458;SDS011;10388;52.314;7.938;2023-12-20T06:01:54;14.20;;;3.53;;
20458;SDS011;10388;52.314;7.938;2023-12-20T06:04:25;13.17;;;3.53;;
20458;SDS011;10388;52.314;7.938;2023-12-20T06:06:55;12.57;;;3.53;;
20458;SDS011;10388;52.314;7.938;2023-12-20T06:09:26;8.47;;;3.73;;
20458;SDS011;10388;52.314;7.938;2023-12-20T06:11:57;13.17;;;4.17;;
20458;SDS011;10388;52.314;7.938;2023-12-20T06:14:28;8.80;;;3.27;;
20458;SDS011;10388;52.314;7.938;2023-12-20T06:16:58;4.70;;;3.23;;
20458;SDS011;10388;52.314;7.938;2023-12-20T06:19:29;8.57;;;3.40;;
20458;SDS011;10388;52.314;7.938;2023-12-20T06:21:59;12.33;;;4.13;;
20458;SDS011;10388;52.314;7.938;2023-12-20T06:24:30;10.17;;;4.20;;
20458;SDS011;10388;52.314;7.938;2023-12-20T06:27:03;10.33;;;3.43;;
20458;SDS011;10388;52.314;7.938;2023-12-20T06:29:33;8.33;;;3.93;;
20458;SDS011;10388;52.314;7.938;2023-12-20T06:32:04;11.63;;;3.90;;
20458;SDS011;10388;52.314;7.938;2023-12-20T06:34:35;10.03;;;4.07;;
20458;SDS011;10388;52.314;7.938;2023-12-20T06:37:06;11.87;;;3.97;;
20458;SDS011;10388;52.314;7.938;2023-12-20T06:39:36;12.67;;;4.17;;
20458;SDS011;10388;52.314;7.938;2023-12-20T06:42:07;14.17;;;4.17;;
20458;SDS011;10388;52.314;7.938;2023-12-20T06:44:37;11.13;;;4.03;;
20458;SDS011;10388;52.314;7.938;2023-12-20T06:47:11;8.27;;;4.10;;
20458;SDS011;10388;52.314;7.938;2023-12-20T06:49:44;10.23;;;4.57;;
20458;SDS011;10388;52.314;7.938;2023-12-20T06:52:14;13.93;;;4.10;;
20458;SDS011;10388;52.314;7.938;2023-12-20T06:54:45;11.77;;;3.57;;
20458;SDS011;10388;52.314;7.938;2023-12-20T06:57:15;12.43;;;4.17;;
20458;SDS011;10388;52.314;7.938;2023-12-20T06:59:46;11.03;;;3.37;;
20458;SDS011;10388;52.314;7.938;2023-12-20T07:02:17;10.63;;;3.43;;
20458;SDS011;10388;52.314;7.938;2023-12-20T07:04:47;11.80;;;3.47;;
20458;SDS011;10388;52.314;7.938;2023-12-20T07:07:18;10.47;;;3.97;;
20458;SDS011;10388;52.314;7.938;2023-12-20T07:09:48;12.07;;;3.70;;
20458;SDS011;10388;52.314;7.938;2023-12-20T07:12:19;14.00;;;3.60;;
20458;SDS011;10388;52.314;7.938;2023-12-20T07:14:49;11.03;;;3.20;;
20458;SDS011;10388;52.314;7.938;2023-12-20T07:17:20;11.90;;;3.63;;
20458;SDS011;10388;52.314;7.938;2023-12-20T07:19:51;10.27;;;3.83;;
20458;SDS011;10388;52.314;7.938;2023-12-20T07:22:21;11.40;;;4.10;;
20458;SDS011;10388;52.314;7.938;2023-12-20T07:24:52;9.87;;;3.17;;
20458;SDS011;10388;52.314;7.938;2023-12-20T07:27:24;9.87;;;3.80;;
20458;SDS011;10388;52.314;7.938;2023-12-20T07:29:55;10.60;;;3.43;;
20458;SDS011;10388;52.314;7.938;2023-12-20T07:32:26;15.67;;;4.03;;
20458;SDS011;10388;52.314;7.938;2023-12-20T07:34:57;11.37;;;3.67;;
20458;SDS011;10388;52.314;7.938;2023-12-20T07:37:27;9.67;;;2.90;;
20458;SDS011;10388;52.314;7.938;2023-12-20T07:39:58;8.50;;;3.20;;
20458;SDS011;10388;52.314;7.938;2023-12-20T07:42:28;8.53;;;2.87;;
20458;SDS011;10388;52.314;7.938;2023-12-20T07:44:59;7.80;;;2.80;;
20458;SDS011;10388;52.314;7.938;2023-12-20T07:47:29;6.83;;;2.83;;
20458;SDS011;10388;52.314;7.938;2023-12-20T07:50:00;9.23;;;2.40;;
20458;SDS011;10388;52.314;7.938;2023-12-20T07:52:30;7.67;;;2.60;;
20458;SDS011;10388;52.314;7.938;2023-12-20T07:55:01;8.97;;;2.90;;
20458;SDS011;10388;52.314;7.938;2023-12-20T07:57:32;9.97;;;3.00;;
20458;SDS011;10388;52.314;7.938;2023-12-20T08:00:02;6.40;;;2.57;;
20458;SDS011;10388;52.314;7.938;2023-12-20T08:02:34;8.27;;;2.67;;
20458;SDS011;10388;52.314;7.938;2023-12-20T08:05:04;8.97;;;3.23;;
20458;SDS011;10388;52.314;7.938;2023-12-20T08:07:35;9.40;;;2.30;;
20458;SDS011;10388;52.314;7.938;2023-12-20T08:10:05;5.27;;;2.57;;
20458;SDS011;10388;52.314;7.938;2023-12-20T08:12:36;5.67;;;2.40;;
20458;SDS011;10388;52.314;7.938;2023-12-20T08:15:07;8.60;;;2.87;;
20458;SDS011;10388;52.314;7.938;2023-12-20T08:17:38;7.33;;;2.97;;
20458;SDS011;10388;52.314;7.938;2023-12-20T08:20:09;11.10;;;3.13;;
20458;SDS011;10388;52.314;7.938;2023-12-20T08:22:39;5.80;;;2.33;;
20458;SDS011;10388;52.314;7.938;2023-12-20T08:25:10;9.17;;;2.90;;
20458;SDS011;10388;52.314;7.938;2023-12-20T08:27:40;6.13;;;2.33;;
20458;SDS011;10388;52.314;7.938;2023-12-20T08:30:11;10.00;;;3.20;;
20458;SDS011;10388;52.314;7.938;2023-12-20T08:32:42;9.27;;;2.50;;
20458;SDS011;10388;52.314;7.938;2023-12-20T08:35:13;8.40;;;2.40;;
20458;SDS011;10388;52.314;7.938;2023-12-20T08:37:43;7.83;;;3.10;;
20458;SDS011;10388;52.314;7.938;2023-12-20T08:40:14;8.23;;;2.77;;
20458;SDS011;10388;52.314;7.938;2023-12-20T08:42:44;8.63;;;3.20;;
20458;SDS011;10388;52.314;7.938;2023-12-20T08:45:15;15.93;;;3.00;;
20458;SDS011;10388;52.314;7.938;2023-12-20T08:47:45;9.40;;;2.50;;
20458;SDS011;10388;52.314;7.938;2023-12-20T08:50:16;10.73;;;2.63;;
20458;SDS011;10388;52.314;7.938;2023-12-20T08:52:47;12.13;;;3.47;;
20458;SDS011;10388;52.314;7.938;2023-12-20T08:55:18;8.10;;;2.87;;
20458;SDS011;10388;52.314;7.938;2023-12-20T08:57:49;8.63;;;2.67;;
20458;SDS011;10388;52.314;7.938;2023-12-20T09:00:20;8.93;;;3.30;;
20458;SDS011;10388;52.314;7.938;2023-12-20T09:02:54;13.03;;;3.53;;
20458;SDS011;10388;52.314;7.938;2023-12-20T09:05:24;7.80;;;2.70;;
20458;SDS011;10388;52.314;7.938;2023-12-20T09:07:55;10.10;;;3.13;;
20458;SDS011;10388;52.314;7.938;2023-12-20T09:10:26;6.77;;;3.33;;
20458;SDS011;10388;52.314;7.938;2023-12-20T09:12:56;8.47;;;2.90;;
20458;SDS011;10388;52.314;7.938;2023-12-20T09:15:27;8.10;;;2.70;;
20458;SDS011;10388;52.314;7.938;2023-12-20T09:17:58;10.90;;;2.90;;
20458;SDS011;10388;52.314;7.938;2023-12-20T09:20:29;6.47;;;2.90;;
20458;SDS011;10388;52.314;7.938;2023-12-20T09:23:00;11.93;;;3.00;;
20458;SDS011;10388;52.314;7.938;2023-12-20T09:25:30;8.47;;;3.30;;
20458;SDS011;10388;52.314;7.938;2023-12-20T09:28:01;8.27;;;3.33;;
20458;SDS011;10388;52.314;7.938;2023-12-20T09:30:31;9.40;;;2.50;;
20458;SDS011;10388;52.314;7.938;2023-12-20T09:33:02;11.23;;;3.87;;
20458;SDS011;10388;52.314;7.938;2023-12-20T09:35:33;8.73;;;3.37;;
20458;SDS011;10388;52.314;7.938;2023-12-20T09:38:03;8.97;;;3.17;;
20458;SDS011;10388;52.314;7.938;2023-12-20T09:40:34;7.90;;;3.03;;
20458;SDS011;10388;52.314;7.938;2023-12-20T09:43:14;7.33;;;3.30;;
20458;SDS011;10388;52.314;7.938;2023-12-20T09:45:46;8.77;;;2.70;;
20458;SDS011;10388;52.314;7.938;2023-12-20T09:48:18;12.03;;;3.60;;
20458;SDS011;10388;52.314;7.938;2023-12-20T09:50:49;14.30;;;3.47;;
20458;SDS011;10388;52.314;7.938;2023-12-20T09:53:20;4.87;;;3.13;;
20458;SDS011;10388;52.314;7.938;2023-12-20T09:55:53;8.90;;;2.73;;
20458;SDS011;10388;52.314;7.938;2023-12-20T09:58:24;6.50;;;2.93;;
20458;SDS011;10388;52.314;7.938;2023-12-20T10:00:54;6.77;;;2.83;;
20458;SDS011;10388;52.314;7.938;2023-12-20T10:03:25;9.80;;;2.90;;
20458;SDS011;10388;52.314;7.938;2023-12-20T10:05:56;11.57;;;3.67;;
20458;SDS011;10388;52.314;7.938;2023-12-20T10:08:28;8.13;;;3.07;;
20458;SDS011;10388;52.314;7.938;2023-12-20T10:11:00;12.30;;;3.67;;
20458;SDS011;10388;52.314;7.938;2023-12-20T10:13:32;11.07;;;3.60;;
20458;SDS011;10388;52.314;7.938;2023-12-20T10:16:03;7.20;;;3.23;;
20458;SDS011;10388;52.314;7.938;2023-12-20T10:18:34;11.53;;;3.30;;
20458;SDS011;10388;52.314;7.938;2023-12-20T10:21:04;9.57;;;4.10;;
20458;SDS011;10388;52.314;7.938;2023-12-20T10:23:36;10.87;;;3.40;;
20458;SDS011;10388;52.314;7.938;2023-12-20T10:26:07;10.40;;;3.20;;
20458;SDS011;10388;52.314;7.938;2023-12-20T10:28:37;7.43;;;3.30;;
20458;SDS011;10388;52.314;7.938;2023-12-20T10:31:08;5.77;;;2.60;;
20458;SDS011;10388;52.314;7.938;2023-12-20T10:33:38;8.60;;;2.70;;
20458;SDS011;10388;52.314;7.938;2023-12-20T10:36:10;4.57;;;2.60;;
20458;SDS011;10388;52.314;7.938;2023-12-20T10:38:43;5.37;;;2.70;;
20458;SDS011;10388;52.314;7.938;2023-12-20T10:41:15;8.07;;;2.63;;
20458;SDS011;10388;52.314;7.938;2023-12-20T10:43:51;6.20;;;2.53;;
20458;SDS011;10388;52.314;7.938;2023-12-20T10:46:22;8.33;;;2.37;;
20458;SDS011;10388;52.314;7.938;2023-12-20T10:48:54;7.90;;;2.80;;
20458;SDS011;10388;52.314;7.938;2023-12-20T10:51:25;6.20;;;2.20;;
20458;SDS011;10388;52.314;7.938;2023-12-20T10:54:00;4.50;;;2.20;;
20458;SDS011;10388;52.314;7.938;2023-12-20T10:56:31;5.63;;;2.03;;
20458;SDS011;10388;52.314;7.938;2023-12-20T10:59:03;5.40;;;2.90;;
20458;SDS011;10388;52.314;7.938;2023-12-20T11:01:35;6.47;;;3.23;;
20458;SDS011;10388;52.314;7.938;2023-12-20T11:04:08;8.93;;;2.63;;
20458;SDS011;10388;52.314;7.938;2023-12-20T11:07:31;7.03;;;2.87;;
20458;SDS011;10388;52.314;7.938;2023-12-20T11:09:48;7.13;;;2.30;;
20458;SDS011;10388;52.314;7.938;2023-12-20T11:12:29;5.00;;;2.40;;
20458;SDS011;10388;52.314;7.938;2023-12-20T11:15:15;8.67;;;2.40;;
20458;SDS011;10388;52.314;7.938;2023-12-20T11:17:47;8.80;;;2.70;;
20458;SDS011;10388;52.314;7.938;2023-12-20T11:20:34;6.87;;;2.97;;
20458;SDS011;10388;52.314;7.938;2023-12-20T11:23:09;5.50;;;2.63;;
20458;SDS011;10388;52.314;7.938;2023-12-20T11:25:51;7.17;;;2.53;;
20458;SDS011;10388;52.314;7.938;2023-12-20T11:28:24;7.27;;;2.33;;
20458;SDS011;10388;52.314;7.938;2023-12-20T11:30:58;5.70;;;2.67;;
20458;SDS011;10388;52.314;7.938;2023-12-20T11:33:36;7.23;;;2.27;;
20458;SDS011;10388;52.314;7.938;2023-12-20T11:36:18;9.13;;;3.70;;
20458;SDS011;10388;52.314;7.938;2023-12-20T11:38:57;7.17;;;3.03;;
20458;SDS011;10388;52.314;7.938;2023-12-20T11:41:28;11.30;;;3.33;;
20458;SDS011;10388;52.314;7.938;2023-12-20T11:43:58;6.63;;;2.40;;
20458;SDS011;10388;52.314;7.938;2023-12-20T11:46:31;8.53;;;2.53;;
20458;SDS011;10388;52.314;7.938;2023-12-20T11:49:03;8.27;;;2.63;;
20458;SDS011;10388;52.314;7.938;2023-12-20T11:51:34;6.23;;;2.83;;
20458;SDS011;10388;52.314;7.938;2023-12-20T11:54:05;7.27;;;2.40;;
20458;SDS011;10388;52.314;7.938;2023-12-20T11:56:36;4.40;;;1.97;;
20458;SDS011;10388;52.314;7.938;2023-12-20T11:59:07;4.23;;;1.70;;
20458;SDS011;10388;52.314;7.938;2023-12-20T12:01:38;5.77;;;2.57;;
20458;SDS011;10388;52.314;7.938;2023-12-20T12:04:09;6.13;;;1.90;;
20458;SDS011;10388;52.314;7.938;2023-12-20T12:06:40;6.47;;;3.43;;
20458;SDS011;10388;52.314;7.938;2023-12-20T12:09:10;3.40;;;1.37;;
20458;SDS011;10388;52.314;7.938;2023-12-20T12:11:41;3.60;;;1.80;;
20458;SDS011;10388;52.314;7.938;2023-12-20T12:14:12;6.73;;;2.43;;
20458;SDS011;10388;52.314;7.938;2023-12-20T12:16:43;3.57;;;1.70;;
20458;SDS011;10388;52.314;7.938;2023-12-20T12:19:20;6.50;;;2.73;;
20458;SDS011;10388;52.314;7.938;2023-12-20T12:22:08;2.90;;;1.50;;
20458;SDS011;10388;52.314;7.938;2023-12-20T12:24:43;3.70;;;1.60;;
20458;SDS011;10388;52.314;7.938;2023-12-20T12:27:14;2.57;;;1.20;;
20458;SDS011;10388;52.314;7.938;2023-12-20T12:30:01;8.20;;;1.80;;
20458;SDS011;10388;52.314;7.938;2023-12-20T12:32:33;4.60;;;1.70;;
20458;SDS011;10388;52.314;7.938;2023-12-20T12:35:04;3.67;;;1.40;;
20458;SDS011;10388;52.314;7.938;2023-12-20T12:37:39;4.37;;;1.80;;
20458;SDS011;10388;52.314;7.938;2023-12-20T12:40:11;2.37;;;1.10;;
20458;SDS011;10388;52.314;7.938;2023-12-20T12:42:43;3.63;;;1.30;;
20458;SDS011;10388;52.314;7.938;2023-12-20T12:45:15;3.77;;;1.30;;
20458;SDS011;10388;52.314;7.938;2023-12-20T12:47:45;4.37;;;1.70;;
20458;SDS011;10388;52.314;7.938;2023-12-20T12:50:16;4.20;;;1.60;;
20458;SDS011;10388;52.314;7.938;2023-12-20T12:52:47;7.50;;;1.70;;
20458;SDS011;10388;52.314;7.938;2023-12-20T12:55:17;8.03;;;1.90;;
20458;SDS011;10388;52.314;7.938;2023-12-20T12:57:48;4.77;;;1.73;;
20458;SDS011;10388;52.314;7.938;2023-12-20T13:00:18;6.47;;;2.20;;
20458;SDS011;10388;52.314;7.938;2023-12-20T13:02:49;4.83;;;1.73;;
20458;SDS011;10388;52.314;7.938;2023-12-20T13:05:20;4.70;;;1.50;;
20458;SDS011;10388;52.314;7.938;2023-12-20T13:07:50;5.70;;;1.73;;
20458;SDS011;10388;52.314;7.938;2023-12-20T13:10:21;6.07;;;1.97;;
20458;SDS011;10388;52.314;7.938;2023-12-20T13:12:52;6.30;;;1.87;;
20458;SDS011;10388;52.314;7.938;2023-12-20T13:15:22;5.60;;;2.00;;
20458;SDS011;10388;52.314;7.938;2023-12-20T13:17:53;4.07;;;1.80;;
20458;SDS011;10388;52.314;7.938;2023-12-20T13:20:23;4.70;;;1.80;;
20458;SDS011;10388;52.314;7.938;2023-12-20T13:22:54;6.17;;;1.90;;
20458;SDS011;10388;52.314;7.938;2023-12-20T13:25:24;3.17;;;1.40;;
20458;SDS011;10388;52.314;7.938;2023-12-20T13:27:55;5.73;;;1.70;;
20458;SDS011;10388;52.314;7.938;2023-12-20T13:30:25;5.27;;;1.70;;
20458;SDS011;10388;52.314;7.938;2023-12-20T13:32:56;4.87;;;1.83;;
20458;SDS011;10388;52.314;7.938;2023-12-20T13:35:26;7.33;;;2.13;;
20458;SDS011;10388;52.314;7.938;2023-12-20T13:37:59;6.43;;;1.20;;
20458;SDS011;10388;52.314;7.938;2023-12-20T13:40:30;3.57;;;1.40;;
20458;SDS011;10388;52.314;7.938;2023-12-20T13:43:01;4.97;;;1.57;;
20458;SDS011;10388;52.314;7.938;2023-12-20T13:45:33;3.97;;;1.60;;
20458;SDS011;10388;52.314;7.938;2023-12-20T13:48:03;3.73;;;1.73;;
20458;SDS011;10388;52.314;7.938;2023-12-20T13:50:34;2.80;;;1.20;;
20458;SDS011;10388;52.314;7.938;2023-12-20T13:53:08;4.67;;;2.10;;
20458;SDS011;10388;52.314;7.938;2023-12-20T13:55:38;4.90;;;1.60;;
20458;SDS011;10388;52.314;7.938;2023-12-20T13:58:09;3.53;;;1.50;;
20458;SDS011;10388;52.314;7.938;2023-12-20T14:00:42;3.53;;;1.57;;
20458;SDS011;10388;52.314;7.938;2023-12-20T14:03:13;2.93;;;1.83;;
20458;SDS011;10388;52.314;7.938;2023-12-20T14:05:43;5.87;;;1.53;;
20458;SDS011;10388;52.314;7.938;2023-12-20T14:08:14;5.17;;;2.20;;
20458;SDS011;10388;52.314;7.938;2023-12-20T14:10:44;6.20;;;1.50;;
20458;SDS011;10388;52.314;7.938;2023-12-20T14:13:15;3.63;;;1.30;;
20458;SDS011;10388;52.314;7.938;2023-12-20T14:15:45;5.03;;;2.37;;
20458;SDS011;10388;52.314;7.938;2023-12-20T14:18:16;5.43;;;1.70;;
20458;SDS011;10388;52.314;7.938;2023-12-20T14:20:48;3.00;;;1.47;;
20458;SDS011;10388;52.314;7.938;2023-12-20T14:23:20;4.67;;;1.43;;
20458;SDS011;10388;52.314;7.938;2023-12-20T14:25:51;2.57;;;1.30;;
20458;SDS011;10388;52.314;7.938;2023-12-20T14:28:21;4.07;;;1.37;;
20458;SDS011;10388;52.314;7.938;2023-12-20T14:30:52;6.27;;;1.43;;
20458;SDS011;10388;52.314;7.938;2023-12-20T14:33:23;3.50;;;1.50;;
20458;SDS011;10388;52.314;7.938;2023-12-20T14:35:54;21.07;;;12.47;;
20458;SDS011;10388;52.314;7.938;2023-12-20T14:38:24;15.27;;;7.30;;
20458;SDS011;10388;52.314;7.938;2023-12-20T14:40:55;5.83;;;2.57;;
20458;SDS011;10388;52.314;7.938;2023-12-20T14:43:26;5.03;;;2.70;;
20458;SDS011;10388;52.314;7.938;2023-12-20T14:45:56;5.27;;;1.90;;
20458;SDS011;10388;52.314;7.938;2023-12-20T14:48:27;3.97;;;1.40;;
20458;SDS011;10388;52.314;7.938;2023-12-20T14:50:57;2.77;;;1.30;;
20458;SDS011;10388;52.314;7.938;2023-12-20T14:53:29;3.37;;;1.97;;
20458;SDS011;10388;52.314;7.938;2023-12-20T14:55:59;4.40;;;1.70;;
20458;SDS011;10388;52.314;7.938;2023-12-20T14:58:30;3.77;;;1.80;;
20458;SDS011;10388;52.314;7.938;2023-12-20T15:01:01;5.77;;;1.47;;
20458;SDS011;10388;52.314;7.938;2023-12-20T15:03:32;4.47;;;2.07;;
20458;SDS011;10388;52.314;7.938;2023-12-20T15:06:02;6.55;;;2.90;;
20458;SDS011;10388;52.314;7.938;2023-12-20T15:08:33;3.57;;;1.90;;